AFL1041 UUEE-URSS
Flight info
| Callsign | AFL1041 |
|---|---|
| Flight time | N/A |
| Altitude | 37000 |
| Route | TOGMO3J TOGMO M56 ABAGI B105 NIMTA/K0852F360 B105 NATIT/K0848F370 DCT MOLED N50 LIDUS G242 ZG DCT ITAKA/K0845F380 DCT OBBUD DCT AMKOL DCT GOTIK DCT MEMZA DCT VENFO DCT BINOL BINOL1K |
| Aircraft | B738/M-SDE2E3FGHIRWXY/LB1 |
Departure
| Time | 2026-04-30 11:58 |
|---|---|
| Airport | Sheremetyevo International Airport (UUEE) |
Arrival
| Time | N/A |
|---|---|
| Airport | Sochi International Airport (URSS) |
| Time | Latitude | Longitude | Altitude | Speed | Heading |
|---|---|---|---|---|---|
| 2026-04-30 11:19 | 55.97839 | 37.41631 | 639 ft | 0 kts | 75° |
| 2026-04-30 11:49 | 55.97836 | 37.41609 | 639 ft | 2 kts | 75° |
| 2026-04-30 11:49 | 55.97832 | 37.41581 | 644 ft | 2 kts | 75° |
| 2026-04-30 11:50 | 55.97830 | 37.41553 | 641 ft | 2 kts | 113° |
| 2026-04-30 11:50 | 55.97841 | 37.41535 | 639 ft | 2 kts | 176° |
| 2026-04-30 11:50 | 55.97857 | 37.41531 | 641 ft | 2 kts | 165° |
| 2026-04-30 11:50 | 55.97860 | 37.41530 | 641 ft | 0 kts | 165° |
| 2026-04-30 11:53 | 55.97856 | 37.41532 | 641 ft | 2 kts | 166° |
| 2026-04-30 11:53 | 55.97834 | 37.41541 | 642 ft | 5 kts | 166° |
| 2026-04-30 11:53 | 55.97792 | 37.41560 | 641 ft | 8 kts | 165° |
| 2026-04-30 11:53 | 55.97732 | 37.41589 | 640 ft | 10 kts | 165° |
| 2026-04-30 11:54 | 55.97654 | 37.41594 | 639 ft | 12 kts | 169° |
| 2026-04-30 11:54 | 55.97614 | 37.41709 | 641 ft | 14 kts | 76° |
| 2026-04-30 11:54 | 55.97639 | 37.41885 | 640 ft | 16 kts | 75° |
| 2026-04-30 11:54 | 55.97669 | 37.42085 | 638 ft | 18 kts | 75° |
| 2026-04-30 11:55 | 55.97703 | 37.42307 | 638 ft | 19 kts | 75° |
| 2026-04-30 11:55 | 55.97739 | 37.42548 | 640 ft | 20 kts | 75° |
| 2026-04-30 11:55 | 55.97775 | 37.42786 | 643 ft | 20 kts | 75° |
| 2026-04-30 11:55 | 55.97809 | 37.43017 | 641 ft | 19 kts | 75° |
| 2026-04-30 11:56 | 55.97842 | 37.43240 | 640 ft | 18 kts | 75° |
| 2026-04-30 11:56 | 55.97875 | 37.43456 | 638 ft | 18 kts | 75° |
| 2026-04-30 11:56 | 55.97906 | 37.43664 | 648 ft | 17 kts | 75° |
| 2026-04-30 11:56 | 55.97935 | 37.43855 | 638 ft | 12 kts | 75° |
| 2026-04-30 11:57 | 55.97947 | 37.43997 | 645 ft | 12 kts | 110° |
| 2026-04-30 11:57 | 55.97877 | 37.44056 | 642 ft | 11 kts | 165° |
| 2026-04-30 11:57 | 55.97801 | 37.44075 | 639 ft | 11 kts | 201° |
| 2026-04-30 11:57 | 55.97770 | 37.43956 | 641 ft | 11 kts | 255° |
| 2026-04-30 11:58 | 55.97736 | 37.43721 | 639 ft | 45 kts | 256° |
| 2026-04-30 11:58 | 55.97594 | 37.42767 | 638 ft | 112 kts | 255° |
| 2026-04-30 11:58 | 55.97346 | 37.41083 | 661 ft | 164 kts | 257° |
| 2026-04-30 11:58 | 55.97056 | 37.39155 | 1507 ft | 153 kts | 258° |
| 2026-04-30 11:59 | 55.96767 | 37.37236 | 2184 ft | 165 kts | 258° |
| 2026-04-30 11:59 | 55.96453 | 37.35154 | 2684 ft | 188 kts | 258° |
| 2026-04-30 11:59 | 55.96086 | 37.32745 | 2973 ft | 213 kts | 256° |
| 2026-04-30 11:59 | 55.95672 | 37.30081 | 3347 ft | 229 kts | 256° |
| 2026-04-30 12:00 | 55.95233 | 37.27294 | 3819 ft | 242 kts | 256° |
| 2026-04-30 12:00 | 55.94762 | 37.24314 | 4311 ft | 256 kts | 256° |
| 2026-04-30 12:00 | 55.94273 | 37.21234 | 5175 ft | 259 kts | 256° |
| 2026-04-30 12:00 | 55.93782 | 37.18158 | 6172 ft | 257 kts | 256° |
| 2026-04-30 12:01 | 55.93289 | 37.15060 | 6990 ft | 263 kts | 256° |
| 2026-04-30 12:01 | 55.92784 | 37.11909 | 7817 ft | 265 kts | 256° |
| 2026-04-30 12:01 | 55.92274 | 37.08731 | 8645 ft | 269 kts | 256° |
| 2026-04-30 12:01 | 55.91759 | 37.05502 | 9438 ft | 273 kts | 258° |
| 2026-04-30 12:02 | 55.91653 | 37.02159 | 9924 ft | 272 kts | 285° |
| 2026-04-30 12:02 | 55.92471 | 36.99143 | 9984 ft | 273 kts | 311° |
| 2026-04-30 12:02 | 55.93876 | 36.96899 | 9999 ft | 271 kts | 324° |
| 2026-04-30 12:02 | 55.95413 | 36.95008 | 9993 ft | 269 kts | 326° |
| 2026-04-30 12:03 | 55.96975 | 36.93137 | 10000 ft | 270 kts | 327° |
| 2026-04-30 12:03 | 56.00576 | 36.92037 | 10099 ft | 277 kts | 14° |
| 2026-04-30 12:03 | 56.02334 | 36.93506 | 10748 ft | 281 kts | 30° |
| 2026-04-30 12:04 | 56.03967 | 36.95421 | 11619 ft | 281 kts | 32° |
| 2026-04-30 12:04 | 56.05589 | 36.97388 | 12403 ft | 283 kts | 32° |
| 2026-04-30 12:04 | 56.07212 | 36.99330 | 13161 ft | 286 kts | 31° |
| 2026-04-30 12:04 | 56.08880 | 37.01300 | 13927 ft | 289 kts | 31° |
| 2026-04-30 12:05 | 56.10587 | 37.03324 | 14240 ft | 291 kts | 34° |
| 2026-04-30 12:05 | 56.11904 | 37.06029 | 14634 ft | 300 kts | 58° |
| 2026-04-30 12:05 | 56.12691 | 37.09696 | 14876 ft | 322 kts | 73° |
| 2026-04-30 12:05 | 56.13212 | 37.13660 | 15419 ft | 330 kts | 74° |
| 2026-04-30 12:06 | 56.13744 | 37.17673 | 16125 ft | 332 kts | 73° |
| 2026-04-30 12:06 | 56.14299 | 37.21697 | 16838 ft | 334 kts | 73° |
| 2026-04-30 12:06 | 56.14860 | 37.25758 | 17520 ft | 338 kts | 76° |
| 2026-04-30 12:06 | 56.14909 | 37.30005 | 18151 ft | 348 kts | 100° |
| 2026-04-30 12:07 | 56.13955 | 37.34020 | 18798 ft | 355 kts | 125° |
| 2026-04-30 12:07 | 56.12196 | 37.37046 | 19343 ft | 360 kts | 148° |
| 2026-04-30 12:07 | 56.09927 | 37.39120 | 19896 ft | 364 kts | 155° |
| 2026-04-30 12:07 | 56.07607 | 37.40998 | 20435 ft | 368 kts | 155° |
| 2026-04-30 12:08 | 56.05251 | 37.42884 | 20978 ft | 372 kts | 155° |
| 2026-04-30 12:08 | 56.02924 | 37.44783 | 21521 ft | 376 kts | 154° |
| 2026-04-30 12:08 | 56.00534 | 37.46770 | 22072 ft | 379 kts | 154° |
| 2026-04-30 12:08 | 55.98135 | 37.48779 | 22609 ft | 383 kts | 154° |
| 2026-04-30 12:09 | 55.95836 | 37.51175 | 23082 ft | 385 kts | 137° |
| 2026-04-30 12:09 | 55.94150 | 37.54843 | 23603 ft | 383 kts | 116° |
| 2026-04-30 12:09 | 55.93209 | 37.59243 | 24084 ft | 379 kts | 99° |
| 2026-04-30 12:09 | 55.92724 | 37.63858 | 24536 ft | 380 kts | 97° |
| 2026-04-30 12:10 | 55.92258 | 37.68520 | 24948 ft | 384 kts | 98° |
| 2026-04-30 12:10 | 55.91751 | 37.73226 | 25283 ft | 390 kts | 102° |
| 2026-04-30 12:10 | 55.90706 | 37.77716 | 25660 ft | 396 kts | 118° |
| 2026-04-30 12:10 | 55.89312 | 37.81958 | 26135 ft | 398 kts | 118° |
| 2026-04-30 12:11 | 55.87916 | 37.86237 | 26528 ft | 401 kts | 117° |
| 2026-04-30 12:11 | 55.86536 | 37.90579 | 26901 ft | 404 kts | 117° |
| 2026-04-30 12:11 | 55.85161 | 37.94962 | 27285 ft | 407 kts | 117° |
| 2026-04-30 12:11 | 55.83448 | 37.98998 | 27609 ft | 416 kts | 137° |
| 2026-04-30 12:12 | 55.80987 | 38.01732 | 27970 ft | 422 kts | 158° |
| 2026-04-30 12:12 | 55.78122 | 38.02877 | 28330 ft | 426 kts | 178° |
| 2026-04-30 12:12 | 55.75179 | 38.02284 | 28634 ft | 429 kts | 198° |
| 2026-04-30 12:12 | 55.72490 | 38.00024 | 28932 ft | 429 kts | 218° |
| 2026-04-30 12:13 | 55.70294 | 37.96461 | 29258 ft | 429 kts | 228° |
| 2026-04-30 12:13 | 55.68214 | 37.92646 | 29574 ft | 432 kts | 228° |
| 2026-04-30 12:13 | 55.65867 | 37.89281 | 29781 ft | 441 kts | 208° |
| 2026-04-30 12:13 | 55.62954 | 37.87521 | 29984 ft | 448 kts | 189° |
| 2026-04-30 12:14 | 55.59827 | 37.87419 | 30082 ft | 455 kts | 174° |
| 2026-04-30 12:14 | 55.53432 | 37.88658 | 30186 ft | 470 kts | 173° |
| 2026-04-30 12:15 | 55.46840 | 37.89845 | 30336 ft | 482 kts | 174° |
| 2026-04-30 12:15 | 55.43498 | 37.90395 | 30590 ft | 482 kts | 174° |
| 2026-04-30 12:15 | 55.40170 | 37.91059 | 30906 ft | 481 kts | 167° |
| 2026-04-30 12:15 | 55.37038 | 37.93047 | 31210 ft | 477 kts | 149° |
| 2026-04-30 12:16 | 55.34267 | 37.96205 | 31600 ft | 473 kts | 144° |
| 2026-04-30 12:16 | 55.31562 | 37.99479 | 31930 ft | 472 kts | 144° |
| 2026-04-30 12:16 | 55.28896 | 38.02716 | 32183 ft | 473 kts | 144° |
| 2026-04-30 12:16 | 55.26185 | 38.05977 | 32522 ft | 471 kts | 145° |
| 2026-04-30 12:17 | 55.20735 | 38.12431 | 33180 ft | 469 kts | 145° |
| 2026-04-30 12:17 | 55.18019 | 38.15612 | 33385 ft | 470 kts | 145° |
| 2026-04-30 12:17 | 55.15317 | 38.18763 | 33611 ft | 471 kts | 145° |
| 2026-04-30 12:18 | 55.12592 | 38.21933 | 33899 ft | 470 kts | 146° |
| 2026-04-30 12:18 | 55.09870 | 38.25095 | 34195 ft | 470 kts | 146° |
| 2026-04-30 12:18 | 55.07149 | 38.28251 | 34412 ft | 469 kts | 146° |
| 2026-04-30 12:18 | 55.04430 | 38.31402 | 34609 ft | 470 kts | 146° |
| 2026-04-30 12:19 | 55.01706 | 38.34553 | 34812 ft | 470 kts | 146° |
| 2026-04-30 12:19 | 54.98986 | 38.37696 | 35033 ft | 469 kts | 146° |
| 2026-04-30 12:19 | 54.96261 | 38.40839 | 35177 ft | 470 kts | 146° |
| 2026-04-30 12:19 | 54.93536 | 38.43976 | 35421 ft | 469 kts | 146° |
| 2026-04-30 12:20 | 54.90820 | 38.47099 | 35647 ft | 468 kts | 146° |
| 2026-04-30 12:20 | 54.88102 | 38.50218 | 35837 ft | 468 kts | 146° |
| 2026-04-30 12:20 | 54.85388 | 38.53329 | 36009 ft | 468 kts | 146° |
| 2026-04-30 12:20 | 54.82662 | 38.56448 | 36136 ft | 469 kts | 146° |
| 2026-04-30 12:21 | 54.79942 | 38.59557 | 36344 ft | 469 kts | 146° |
| 2026-04-30 12:21 | 54.77180 | 38.62707 | 36503 ft | 469 kts | 146° |
| 2026-04-30 12:21 | 54.74437 | 38.65772 | 36717 ft | 467 kts | 148° |
| 2026-04-30 12:21 | 54.71695 | 38.68642 | 36933 ft | 467 kts | 149° |
| 2026-04-30 12:22 | 54.68893 | 38.71494 | 37079 ft | 467 kts | 149° |
| 2026-04-30 12:22 | 54.66096 | 38.74347 | 37208 ft | 467 kts | 149° |
| 2026-04-30 12:22 | 54.60493 | 38.80145 | 37205 ft | 471 kts | 149° |
| 2026-04-30 12:23 | 54.54871 | 38.85968 | 37211 ft | 472 kts | 149° |
| 2026-04-30 12:23 | 54.49227 | 38.91790 | 37206 ft | 472 kts | 149° |
| 2026-04-30 12:24 | 54.44542 | 38.96610 | 37207 ft | 472 kts | 149° |
| 2026-04-30 12:24 | 54.39226 | 39.03100 | 37202 ft | 469 kts | 130° |
| 2026-04-30 12:25 | 54.37420 | 39.07723 | 37203 ft | 467 kts | 114° |
| 2026-04-30 12:25 | 54.36200 | 39.12865 | 37229 ft | 465 kts | 110° |
| 2026-04-30 12:25 | 54.33875 | 39.23215 | 37207 ft | 465 kts | 112° |
| 2026-04-30 12:26 | 54.31420 | 39.33452 | 37206 ft | 464 kts | 112° |
| 2026-04-30 12:26 | 54.28928 | 39.43666 | 37207 ft | 465 kts | 112° |
| 2026-04-30 12:27 | 54.26433 | 39.53872 | 37197 ft | 465 kts | 112° |
| 2026-04-30 12:27 | 54.23932 | 39.64085 | 37204 ft | 466 kts | 112° |
| 2026-04-30 12:28 | 54.21419 | 39.74306 | 37202 ft | 467 kts | 113° |
| 2026-04-30 12:28 | 54.18891 | 39.84539 | 37186 ft | 468 kts | 113° |
| 2026-04-30 12:29 | 54.16350 | 39.94775 | 37199 ft | 468 kts | 113° |
| 2026-04-30 12:29 | 54.13801 | 40.05006 | 37197 ft | 469 kts | 113° |
| 2026-04-30 12:30 | 54.11309 | 40.15281 | 37194 ft | 469 kts | 109° |
| 2026-04-30 12:30 | 54.09424 | 40.25922 | 37190 ft | 469 kts | 106° |
| 2026-04-30 12:31 | 54.07652 | 40.36610 | 37195 ft | 469 kts | 106° |
| 2026-04-30 12:31 | 54.05825 | 40.47255 | 37185 ft | 468 kts | 107° |
| 2026-04-30 12:32 | 54.03954 | 40.57872 | 37187 ft | 468 kts | 107° |
| 2026-04-30 12:32 | 54.02071 | 40.68455 | 37195 ft | 467 kts | 107° |
| 2026-04-30 12:33 | 54.00182 | 40.79023 | 37187 ft | 467 kts | 108° |
| 2026-04-30 12:33 | 53.98288 | 40.89578 | 37179 ft | 467 kts | 108° |
| 2026-04-30 12:34 | 53.96384 | 41.00131 | 37189 ft | 467 kts | 108° |
| 2026-04-30 12:34 | 53.94535 | 41.10705 | 37188 ft | 467 kts | 106° |
| 2026-04-30 12:35 | 53.92822 | 41.21362 | 37179 ft | 468 kts | 106° |
| 2026-04-30 12:35 | 53.91104 | 41.32012 | 37175 ft | 468 kts | 106° |
| 2026-04-30 12:36 | 53.89357 | 41.42640 | 37180 ft | 468 kts | 107° |
| 2026-04-30 12:36 | 53.87591 | 41.53270 | 37181 ft | 468 kts | 107° |
| 2026-04-30 12:37 | 53.85817 | 41.63890 | 37175 ft | 468 kts | 107° |
| 2026-04-30 12:37 | 53.84047 | 41.74429 | 37171 ft | 468 kts | 107° |
| 2026-04-30 12:38 | 53.82228 | 41.85085 | 37173 ft | 468 kts | 107° |
| 2026-04-30 12:38 | 53.80415 | 41.95578 | 37172 ft | 468 kts | 107° |
| 2026-04-30 12:39 | 53.78572 | 42.06194 | 37171 ft | 467 kts | 107° |
| 2026-04-30 12:39 | 53.76734 | 42.16737 | 37168 ft | 467 kts | 108° |
| 2026-04-30 12:40 | 53.74891 | 42.27248 | 37169 ft | 467 kts | 108° |
| 2026-04-30 12:40 | 53.73049 | 42.37694 | 37159 ft | 466 kts | 108° |
| 2026-04-30 12:41 | 53.71180 | 42.48238 | 37165 ft | 466 kts | 108° |
| 2026-04-30 12:41 | 53.69323 | 42.58656 | 37163 ft | 466 kts | 108° |
| 2026-04-30 12:42 | 53.68103 | 42.63672 | 37133 ft | 462 kts | 125° |
| 2026-04-30 12:42 | 53.66071 | 42.67798 | 37179 ft | 456 kts | 140° |
| 2026-04-30 12:42 | 53.63509 | 42.70896 | 37154 ft | 452 kts | 155° |
| 2026-04-30 12:42 | 53.60654 | 42.73091 | 37156 ft | 451 kts | 159° |
| 2026-04-30 12:43 | 53.54850 | 42.77127 | 37162 ft | 452 kts | 159° |
| 2026-04-30 12:43 | 53.49038 | 42.81174 | 37159 ft | 453 kts | 159° |
| 2026-04-30 12:44 | 53.43224 | 42.85313 | 37157 ft | 454 kts | 159° |
| 2026-04-30 12:44 | 53.37410 | 42.89477 | 37154 ft | 455 kts | 159° |
| 2026-04-30 12:45 | 53.31587 | 42.93638 | 37151 ft | 455 kts | 159° |
| 2026-04-30 12:45 | 53.25759 | 42.97786 | 37151 ft | 455 kts | 159° |
| 2026-04-30 12:46 | 53.19933 | 43.01919 | 37151 ft | 455 kts | 159° |
| 2026-04-30 12:46 | 53.14108 | 43.06039 | 37155 ft | 454 kts | 159° |
| 2026-04-30 12:47 | 53.08319 | 43.10254 | 37137 ft | 454 kts | 158° |
| 2026-04-30 12:47 | 53.02558 | 43.14568 | 37148 ft | 453 kts | 158° |
| 2026-04-30 12:48 | 52.96807 | 43.18860 | 37146 ft | 453 kts | 158° |
| 2026-04-30 12:48 | 52.91063 | 43.23114 | 37143 ft | 452 kts | 158° |
| 2026-04-30 12:49 | 52.85320 | 43.27346 | 37144 ft | 451 kts | 158° |
| 2026-04-30 12:49 | 52.79588 | 43.31556 | 37133 ft | 451 kts | 159° |
| 2026-04-30 12:50 | 52.73895 | 43.35724 | 37140 ft | 450 kts | 159° |
| 2026-04-30 12:50 | 52.68175 | 43.39902 | 37134 ft | 450 kts | 159° |
| 2026-04-30 12:51 | 52.62414 | 43.44097 | 37140 ft | 450 kts | 159° |
| 2026-04-30 12:51 | 52.56728 | 43.48226 | 37142 ft | 450 kts | 159° |
| 2026-04-30 12:52 | 52.50998 | 43.52374 | 37146 ft | 450 kts | 159° |
| 2026-04-30 12:52 | 52.45260 | 43.56517 | 37144 ft | 451 kts | 159° |
| 2026-04-30 12:53 | 52.39513 | 43.60655 | 37142 ft | 451 kts | 159° |
| 2026-04-30 12:53 | 52.33761 | 43.64784 | 37145 ft | 452 kts | 159° |
| 2026-04-30 12:54 | 52.28000 | 43.68908 | 37145 ft | 452 kts | 159° |
| 2026-04-30 12:54 | 52.22233 | 43.73025 | 37143 ft | 452 kts | 159° |
| 2026-04-30 12:55 | 52.16466 | 43.77130 | 37147 ft | 452 kts | 159° |
| 2026-04-30 12:55 | 52.10701 | 43.81222 | 37153 ft | 452 kts | 159° |
| 2026-04-30 12:56 | 52.04934 | 43.85303 | 37135 ft | 452 kts | 160° |
| 2026-04-30 12:56 | 51.99169 | 43.89373 | 37154 ft | 452 kts | 160° |
| 2026-04-30 12:57 | 51.93407 | 43.93428 | 37155 ft | 452 kts | 160° |
| 2026-04-30 12:57 | 51.87640 | 43.97475 | 37157 ft | 452 kts | 160° |
| 2026-04-30 12:58 | 51.81874 | 44.01510 | 37151 ft | 452 kts | 160° |
| 2026-04-30 12:58 | 51.76105 | 44.05536 | 37157 ft | 451 kts | 160° |
| 2026-04-30 12:59 | 51.70343 | 44.09546 | 37154 ft | 451 kts | 160° |
| 2026-04-30 12:59 | 51.64625 | 44.13515 | 37172 ft | 451 kts | 160° |
| 2026-04-30 13:00 | 51.58859 | 44.17505 | 37157 ft | 451 kts | 160° |
| 2026-04-30 13:00 | 51.53094 | 44.21485 | 37149 ft | 451 kts | 160° |
| 2026-04-30 13:01 | 51.47329 | 44.25452 | 37159 ft | 451 kts | 160° |
| 2026-04-30 13:01 | 51.41563 | 44.29411 | 37158 ft | 450 kts | 160° |
| 2026-04-30 13:02 | 51.35799 | 44.33357 | 37168 ft | 451 kts | 160° |
| 2026-04-30 13:02 | 51.30027 | 44.37297 | 37146 ft | 451 kts | 160° |
| 2026-04-30 13:03 | 51.24256 | 44.41229 | 37149 ft | 451 kts | 161° |
| 2026-04-30 13:03 | 51.18464 | 44.45054 | 37147 ft | 448 kts | 166° |
| 2026-04-30 13:04 | 51.12409 | 44.46661 | 37150 ft | 438 kts | 183° |
| 2026-04-30 13:04 | 51.06347 | 44.46130 | 37159 ft | 436 kts | 187° |
| 2026-04-30 13:05 | 51.00285 | 44.45477 | 37148 ft | 437 kts | 187° |
| 2026-04-30 13:06 | 50.91189 | 44.44579 | 37160 ft | 437 kts | 187° |
| 2026-04-30 13:06 | 50.85123 | 44.44012 | 37165 ft | 437 kts | 187° |
| 2026-04-30 13:07 | 50.79053 | 44.43450 | 37151 ft | 437 kts | 187° |
| 2026-04-30 13:07 | 50.74009 | 44.42984 | 37156 ft | 437 kts | 187° |
| 2026-04-30 13:08 | 50.66953 | 44.42332 | 37139 ft | 437 kts | 187° |
| 2026-04-30 13:08 | 50.60885 | 44.41773 | 37152 ft | 436 kts | 187° |
| 2026-04-30 13:09 | 50.54826 | 44.41217 | 37162 ft | 436 kts | 187° |
| 2026-04-30 13:09 | 50.49754 | 44.40751 | 37160 ft | 436 kts | 187° |
| 2026-04-30 13:10 | 50.43731 | 44.40200 | 37151 ft | 436 kts | 187° |
| 2026-04-30 13:10 | 50.37673 | 44.39648 | 37155 ft | 436 kts | 187° |
| 2026-04-30 13:11 | 50.31618 | 44.39097 | 37136 ft | 435 kts | 187° |
| 2026-04-30 13:11 | 50.25587 | 44.38550 | 37147 ft | 434 kts | 187° |
| 2026-04-30 13:12 | 50.19570 | 44.38005 | 37150 ft | 433 kts | 187° |
| 2026-04-30 13:12 | 50.13564 | 44.37463 | 37159 ft | 432 kts | 187° |
| 2026-04-30 13:13 | 50.04568 | 44.36652 | 37155 ft | 431 kts | 187° |
| 2026-04-30 13:14 | 49.95603 | 44.35848 | 37149 ft | 430 kts | 187° |
| 2026-04-30 13:14 | 49.86637 | 44.35047 | 37158 ft | 430 kts | 187° |
| 2026-04-30 13:15 | 49.77671 | 44.34248 | 37157 ft | 431 kts | 187° |
| 2026-04-30 13:16 | 49.71687 | 44.33716 | 37155 ft | 431 kts | 187° |
| 2026-04-30 13:16 | 49.65703 | 44.33186 | 37161 ft | 431 kts | 187° |
| 2026-04-30 13:17 | 49.56671 | 44.33211 | 37158 ft | 440 kts | 174° |
| 2026-04-30 13:17 | 49.50787 | 44.36049 | 37170 ft | 447 kts | 162° |
| 2026-04-30 13:18 | 49.47919 | 44.37909 | 37157 ft | 448 kts | 162° |
| 2026-04-30 13:18 | 49.39334 | 44.43500 | 37132 ft | 448 kts | 162° |
| 2026-04-30 13:19 | 49.33572 | 44.47176 | 37150 ft | 448 kts | 163° |
| 2026-04-30 13:19 | 49.27814 | 44.50816 | 37155 ft | 448 kts | 163° |
| 2026-04-30 13:20 | 49.22051 | 44.54446 | 37150 ft | 448 kts | 163° |
| 2026-04-30 13:20 | 49.16292 | 44.58067 | 37138 ft | 447 kts | 163° |
| 2026-04-30 13:21 | 49.10534 | 44.61680 | 37140 ft | 448 kts | 163° |
| 2026-04-30 13:22 | 49.01890 | 44.67086 | 37149 ft | 447 kts | 163° |
| 2026-04-30 13:22 | 48.93244 | 44.72474 | 37151 ft | 448 kts | 163° |
| 2026-04-30 13:23 | 48.84628 | 44.77904 | 37127 ft | 451 kts | 159° |
| 2026-04-30 13:24 | 48.79368 | 44.83302 | 37145 ft | 461 kts | 147° |
| 2026-04-30 13:24 | 48.74361 | 44.89381 | 37136 ft | 462 kts | 147° |
| 2026-04-30 13:25 | 48.64280 | 45.01398 | 37131 ft | 460 kts | 148° |
| 2026-04-30 13:26 | 48.51654 | 45.16222 | 37098 ft | 461 kts | 148° |
| 2026-04-30 13:28 | 48.38944 | 45.30676 | 37119 ft | 452 kts | 158° |
| 2026-04-30 13:28 | 48.30488 | 45.36854 | 37107 ft | 447 kts | 161° |
| 2026-04-30 13:29 | 48.19306 | 45.44934 | 37118 ft | 448 kts | 160° |
| 2026-04-30 13:31 | 48.05266 | 45.55171 | 37111 ft | 450 kts | 160° |
| 2026-04-30 13:32 | 47.91149 | 45.65400 | 37116 ft | 452 kts | 160° |
| 2026-04-30 13:33 | 47.79805 | 45.73575 | 37107 ft | 453 kts | 161° |
| 2026-04-30 13:34 | 47.71270 | 45.79698 | 37108 ft | 455 kts | 161° |
| 2026-04-30 13:35 | 47.59864 | 45.87848 | 37106 ft | 455 kts | 161° |
| 2026-04-30 13:36 | 47.48449 | 45.95966 | 37106 ft | 455 kts | 161° |
| 2026-04-30 13:36 | 47.39815 | 46.02081 | 37104 ft | 455 kts | 161° |
| 2026-04-30 13:37 | 47.31364 | 46.08049 | 37103 ft | 455 kts | 161° |
| 2026-04-30 13:38 | 47.22809 | 46.14078 | 37080 ft | 454 kts | 161° |
| 2026-04-30 13:39 | 47.11431 | 46.22064 | 37099 ft | 453 kts | 161° |
| 2026-04-30 13:39 | 47.05920 | 46.26603 | 37098 ft | 464 kts | 147° |
| 2026-04-30 13:40 | 47.03541 | 46.29871 | 37106 ft | 472 kts | 137° |
| 2026-04-30 13:40 | 46.99779 | 46.37856 | 37094 ft | 479 kts | 127° |
| 2026-04-30 13:41 | 46.96277 | 46.46178 | 37104 ft | 480 kts | 127° |
| 2026-04-30 13:41 | 46.92705 | 46.54520 | 37100 ft | 480 kts | 128° |
| 2026-04-30 13:42 | 46.89110 | 46.62766 | 37080 ft | 481 kts | 128° |
| 2026-04-30 13:42 | 46.83687 | 46.75112 | 37098 ft | 482 kts | 128° |
| 2026-04-30 13:43 | 46.80057 | 46.83354 | 37102 ft | 482 kts | 128° |
| 2026-04-30 13:43 | 46.76423 | 46.91584 | 37066 ft | 483 kts | 128° |
| 2026-04-30 13:44 | 46.72780 | 46.99811 | 37092 ft | 483 kts | 128° |
| 2026-04-30 13:44 | 46.69141 | 47.08006 | 37099 ft | 483 kts | 128° |
| 2026-04-30 13:45 | 46.63737 | 47.20380 | 37100 ft | 483 kts | 127° |
| 2026-04-30 13:46 | 46.60145 | 47.28626 | 37096 ft | 482 kts | 127° |
| 2026-04-30 13:46 | 46.56545 | 47.36848 | 37098 ft | 482 kts | 127° |
| 2026-04-30 13:47 | 46.52918 | 47.45097 | 37100 ft | 481 kts | 128° |
| 2026-04-30 13:47 | 46.49311 | 47.53274 | 37075 ft | 481 kts | 127° |
| 2026-04-30 13:48 | 46.45702 | 47.61433 | 37095 ft | 480 kts | 128° |
| 2026-04-30 13:48 | 46.42090 | 47.69576 | 37105 ft | 480 kts | 128° |
| 2026-04-30 13:49 | 46.38474 | 47.77704 | 37100 ft | 480 kts | 128° |
| 2026-04-30 13:49 | 46.35466 | 47.84449 | 37086 ft | 480 kts | 128° |
| 2026-04-30 13:50 | 46.31845 | 47.92551 | 37109 ft | 479 kts | 127° |
| 2026-04-30 13:50 | 46.27286 | 48.05418 | 37101 ft | 488 kts | 108° |
| 2026-04-30 13:51 | 46.25853 | 48.15015 | 37100 ft | 489 kts | 104° |
| 2026-04-30 13:51 | 46.24480 | 48.24610 | 37097 ft | 486 kts | 105° |
| 2026-04-30 13:52 | 46.23037 | 48.34130 | 37088 ft | 485 kts | 106° |
| 2026-04-30 13:52 | 46.21567 | 48.43618 | 37090 ft | 483 kts | 106° |
| 2026-04-30 13:53 | 46.19955 | 48.53006 | 37064 ft | 477 kts | 118° |
| 2026-04-30 13:53 | 46.18889 | 48.55811 | 37094 ft | 466 kts | 131° |
| 2026-04-30 13:54 | 46.13236 | 48.62435 | 37083 ft | 441 kts | 163° |
| 2026-04-30 13:54 | 46.10352 | 48.63805 | 37117 ft | 435 kts | 169° |
| 2026-04-30 13:54 | 46.04498 | 48.66088 | 37102 ft | 437 kts | 171° |
| 2026-04-30 13:55 | 45.98609 | 48.68346 | 37096 ft | 439 kts | 170° |
| 2026-04-30 13:55 | 45.92694 | 48.70672 | 37100 ft | 442 kts | 170° |
| 2026-04-30 13:56 | 45.86750 | 48.73044 | 37104 ft | 444 kts | 170° |
| 2026-04-30 13:56 | 45.80786 | 48.75428 | 37106 ft | 446 kts | 169° |
| 2026-04-30 13:57 | 45.74791 | 48.77821 | 37101 ft | 448 kts | 169° |
| 2026-04-30 13:57 | 45.68782 | 48.80214 | 37095 ft | 448 kts | 170° |
| 2026-04-30 13:58 | 45.59778 | 48.83787 | 37101 ft | 447 kts | 170° |
| 2026-04-30 13:59 | 45.53792 | 48.86155 | 37104 ft | 446 kts | 170° |
| 2026-04-30 13:59 | 45.47820 | 48.88513 | 37091 ft | 444 kts | 170° |
| 2026-04-30 14:00 | 45.41879 | 48.90853 | 37103 ft | 442 kts | 170° |
| 2026-04-30 14:00 | 45.32988 | 48.94344 | 37113 ft | 441 kts | 170° |
| 2026-04-30 14:01 | 45.27067 | 48.96663 | 37094 ft | 441 kts | 170° |
| 2026-04-30 14:01 | 45.21149 | 48.98975 | 37110 ft | 441 kts | 170° |
| 2026-04-30 14:02 | 45.15226 | 49.01285 | 37112 ft | 442 kts | 170° |
| 2026-04-30 14:02 | 45.09295 | 49.03592 | 37107 ft | 443 kts | 170° |
| 2026-04-30 14:03 | 45.03346 | 49.05903 | 37116 ft | 443 kts | 170° |
| 2026-04-30 14:03 | 44.97383 | 49.08213 | 37118 ft | 445 kts | 170° |
| 2026-04-30 14:04 | 44.91402 | 49.10525 | 37116 ft | 446 kts | 170° |
| 2026-04-30 14:04 | 44.85404 | 49.12839 | 37101 ft | 447 kts | 170° |
| 2026-04-30 14:05 | 44.82399 | 49.13997 | 37108 ft | 448 kts | 170° |